Time;durP1;ratioP1;P1;durP2;ratioP2;P2;SDS_P1;SDS_P2;PMS_P1;PMS_P2;Temp;Humidity;BMP_temperature;BMP_pressure;BME280_temperature;BME280_humidity;BME280_pressure;Samples;Min_cycle;Max_cycle;Signal;HPM_P1;HPM_P2
2022/12/16 00:01:37;;;;;;;5.75;4.68;;;22.20;39.60;;;20.49;43.11;94277.38;5027310;28;20226;-61
2022/12/16 00:04:03;;;;;;;5.40;4.28;;;22.20;39.80;;;20.50;43.36;94289.63;5002064;28;20030;-61
2022/12/16 00:06:31;;;;;;;5.20;4.40;;;22.20;39.80;;;20.49;42.67;94296.84;5010483;28;20038;-61
2022/12/16 00:08:57;;;;;;;5.47;4.00;;;22.20;39.80;;;20.49;43.03;94298.72;4974959;28;20065;-62
2022/12/16 00:11:23;;;;;;;4.85;3.85;;;22.20;39.70;;;20.50;43.00;94300.31;4974975;28;20037;-61
2022/12/16 00:13:49;;;;;;;5.15;3.88;;;22.20;39.70;;;20.49;42.78;94304.06;5007791;28;20509;-61
2022/12/16 00:16:16;;;;;;;5.82;4.25;;;22.20;39.70;;;20.48;43.49;94311.28;5007645;28;20045;-61
2022/12/16 00:18:43;;;;;;;5.00;3.95;;;22.20;39.70;;;20.49;42.85;94309.41;4990513;28;20062;-62
2022/12/16 00:21:09;;;;;;;4.13;3.60;;;22.20;39.80;;;20.48;43.20;94302.50;4975058;28;20616;-61
2022/12/16 00:23:35;;;;;;;7.63;4.10;;;22.20;39.80;;;20.49;43.11;94304.06;4990961;28;20026;-61
2022/12/16 00:26:01;;;;;;;5.50;4.20;;;22.20;39.70;;;20.47;43.21;94301.69;4990926;28;20046;-61
2022/12/16 00:28:26;;;;;;;5.95;4.20;;;22.20;39.80;;;20.49;43.04;94310.22;4974789;28;20049;-61
2022/12/16 00:30:53;;;;;;;4.78;3.90;;;22.10;39.80;;;20.48;43.52;94313.19;4973854;28;20480;-61
2022/12/16 00:33:20;;;;;;;4.60;3.97;;;22.20;39.80;;;20.49;42.95;94309.41;4974727;28;20384;-61
2022/12/16 00:35:45;;;;;;;4.63;3.92;;;22.10;39.80;;;20.48;42.64;94307.84;4993287;28;20064;-61
2022/12/16 00:38:11;;;;;;;6.15;4.22;;;22.20;39.80;;;20.46;42.93;94308.13;5010710;28;20061;-61
2022/12/16 00:40:37;;;;;;;5.55;4.10;;;22.10;39.80;;;20.48;42.61;94305.97;5009658;28;20282;-61
2022/12/16 00:43:03;;;;;;;5.68;4.35;;;22.10;39.80;;;20.47;42.79;94307.03;5010453;28;20567;-60
2022/12/16 00:45:29;;;;;;;5.18;4.20;;;22.20;39.90;;;20.46;42.65;94299.31;5026611;28;20029;-61
2022/12/16 00:47:55;;;;;;;4.82;4.05;;;22.20;39.90;;;20.48;42.81;94305.97;5010311;28;20025;-61
2022/12/16 00:50:20;;;;;;;6.45;4.18;;;22.20;39.90;;;20.47;43.33;94308.91;5027659;28;20056;-61
2022/12/16 00:52:47;;;;;;;5.13;4.13;;;22.20;39.90;;;20.47;42.71;94314.25;5009852;28;20465;-61
2022/12/16 00:55:13;;;;;;;6.38;4.65;;;22.10;39.90;;;20.46;43.15;94304.66;5010141;28;20693;-60
2022/12/16 00:57:39;;;;;;;5.00;3.90;;;22.10;39.90;;;20.47;42.80;94311.59;5008958;28;20501;-61
2022/12/16 01:00:06;;;;;;;4.13;3.50;;;22.20;39.90;;;20.45;42.96;94319.09;5026388;28;20029;-61
2022/12/16 01:02:31;;;;;;;4.95;3.70;;;22.20;39.90;;;20.45;43.64;94316.44;4990979;28;20532;-62
2022/12/16 01:04:57;;;;;;;6.55;4.57;;;22.10;39.90;;;20.46;42.98;94323.38;4998654;28;20037;-61
2022/12/16 01:07:23;;;;;;;4.55;3.53;;;22.20;39.90;;;20.45;43.31;94327.91;5006532;28;20568;-61
2022/12/16 01:09:49;;;;;;;5.10;3.58;;;22.20;39.90;;;20.45;42.79;94335.13;4974005;28;20401;-61
2022/12/16 01:12:14;;;;;;;4.15;3.60;;;22.20;39.90;;;20.46;43.58;94334.03;4989942;28;20073;-61
2022/12/16 01:14:40;;;;;;;5.93;4.70;;;22.20;39.90;;;20.47;43.06;94340.97;4973134;28;20531;-61
2022/12/16 01:17:06;;;;;;;7.10;4.30;;;22.20;40.00;;;20.46;43.67;94339.38;5007758;28;20053;-61
2022/12/16 01:19:32;;;;;;;8.75;4.93;;;22.20;40.00;;;20.41;42.86;94334.94;4973535;28;20470;-61
2022/12/16 01:21:57;;;;;;;5.95;4.03;;;22.10;39.40;;;20.45;43.49;94351.16;4989781;28;20470;-62
2022/12/16 01:24:23;;;;;;;5.72;4.35;;;22.20;40.00;;;20.45;43.23;94356.50;4973989;28;20570;-60
2022/12/16 01:26:49;;;;;;;7.93;3.80;;;22.10;40.00;;;20.45;43.32;94353.81;4989215;28;20667;-61
2022/12/16 01:29:14;;;;;;;5.57;4.07;;;22.20;40.00;;;20.45;42.88;94362.63;4973733;28;20616;-61
2022/12/16 01:31:40;;;;;;;4.93;3.90;;;22.10;40.00;;;20.42;42.87;94357.09;4987682;28;20512;-61
2022/12/16 01:34:06;;;;;;;5.90;3.78;;;22.10;39.80;;;20.42;42.88;94359.75;4990020;28;20563;-61
2022/12/16 01:36:31;;;;;;;5.10;4.60;;;22.10;40.00;;;20.40;43.02;94351.22;5024765;28;20041;-61
2022/12/16 01:38:57;;;;;;;5.85;4.53;;;22.10;39.70;;;20.40;42.70;94352.03;5009259;28;20060;-61
2022/12/16 01:41:23;;;;;;;4.90;3.78;;;22.10;40.00;;;20.41;43.26;94350.16;5009319;28;20048;-61
2022/12/16 01:43:49;;;;;;;5.07;3.90;;;22.10;40.00;;;20.39;43.25;94353.09;5010602;28;20046;-61
2022/12/16 01:46:20;;;;;;;5.28;3.80;;;22.10;39.80;;;20.40;43.59;94354.72;5011735;28;20053;-61
2022/12/16 01:48:57;;;;;;;4.63;3.80;;;22.10;39.90;;;20.41;42.75;94355.50;5010888;28;20066;-61
2022/12/16 01:51:39;;;;;;;4.32;3.25;;;22.10;40.00;;;20.41;42.74;94355.50;5028395;28;20116;-61
2022/12/16 01:54:20;;;;;;;6.80;3.90;;;22.10;40.00;;;20.39;43.60;94355.78;4995970;28;20037;-61
2022/12/16 01:56:51;;;;;;;5.53;3.55;;;22.10;40.10;;;20.38;43.56;94356.06;5011605;28;20034;-61
2022/12/16 01:59:16;;;;;;;4.60;3.53;;;22.10;40.10;;;20.38;43.27;94348.84;5012210;28;20116;-61
2022/12/16 02:01:42;;;;;;;5.65;4.03;;;22.10;39.90;;;20.38;42.72;94356.84;5011404;28;20045;-60
2022/12/16 02:04:08;;;;;;;4.22;3.47;;;22.10;40.10;;;20.37;43.15;94359.81;5019519;28;20030;-61
2022/12/16 02:06:34;;;;;;;5.90;4.00;;;22.10;40.00;;;20.39;43.16;94357.66;4993704;28;20117;-61
2022/12/16 02:09:02;;;;;;;5.45;3.95;;;22.10;40.00;;;20.37;42.60;94359.81;4980405;28;20492;-61
2022/12/16 02:11:27;;;;;;;6.30;3.92;;;22.10;39.90;;;20.38;43.84;94366.75;4998654;28;20814;-61
2022/12/16 02:14:19;;;;;;;5.20;4.38;;;22.10;40.00;;;20.39;42.92;94357.66;4998939;28;20057;-61
2022/12/16 02:16:55;;;;;;;4.70;3.83;;;22.10;40.00;;;20.37;42.94;94359.81;4981841;28;20072;-61
2022/12/16 02:20:11;;;;;;;5.53;3.85;;;22.10;40.00;;;20.38;43.49;94366.75;5015068;28;20117;-61
2022/12/16 02:22:58;;;;;;;4.90;3.70;;;22.10;40.00;;;20.34;43.32;94371.06;4997958;28;20034;-61
2022/12/16 02:25:46;;;;;;;6.53;5.07;;;22.10;40.00;;;20.33;43.34;94369.47;5012982;28;20038;-61
2022/12/16 02:28:44;;;;;;;4.97;4.07;;;22.00;40.00;;;20.34;44.10;94371.06;4980423;28;20400;-61
2022/12/16 02:31:19;;;;;;;7.22;3.78;;;22.10;40.00;;;20.33;43.01;94382.81;5011969;28;20042;-61
2022/12/16 02:34:00;;;;;;;10.40;4.15;;;22.10;40.10;;;20.31;43.69;94391.13;5011045;28;20044;-61
2022/12/16 02:36:56;;;;;;;5.57;4.22;;;22.10;40.10;;;20.32;44.04;94389.25;5002468;28;20045;-61
2022/12/16 02:39:26;;;;;;;5.13;3.38;;;22.00;39.90;;;20.30;43.81;94394.09;5016657;28;20644;-61
2022/12/16 02:42:39;;;;;;;20.02;5.18;;;22.10;40.10;;;20.31;43.95;94393.78;4959875;28;20125;-61
2022/12/16 02:45:17;;;;;;;6.82;5.78;;;22.00;40.00;;;20.29;43.63;94387.16;4990973;28;20073;-61
2022/12/16 02:47:44;;;;;;;6.35;4.50;;;22.10;39.10;;;20.26;43.24;94390.41;4945483;28;20379;-61
2022/12/16 02:50:27;;;;;;;5.40;3.58;;;22.00;39.90;;;20.29;43.13;94400.50;4960062;28;20031;-61
2022/12/16 02:52:53;;;;;;;5.97;3.90;;;22.00;40.00;;;20.26;43.59;94399.22;4959363;28;20038;-61
2022/12/16 02:55:19;;;;;;;6.20;4.15;;;22.00;40.10;;;20.27;43.09;94402.69;4944026;28;20046;-61
2022/12/16 02:57:58;;;;;;;5.10;4.00;;;22.10;40.10;;;20.29;43.21;94413.88;4943879;28;20093;-61
2022/12/16 03:00:24;;;;;;;6.75;5.50;;;22.10;40.00;;;20.28;43.06;94415.75;4975688;28;20509;-61
2022/12/16 03:03:17;;;;;;;5.45;4.45;;;22.00;40.00;;;20.31;43.61;94419.72;4962934;28;20054;-61
2022/12/16 03:05:47;;;;;;;6.18;3.58;;;22.10;40.10;;;20.28;42.97;94415.75;5003015;28;20034;-61
2022/12/16 03:08:19;;;;;;;7.40;4.17;;;22.10;40.10;;;20.34;43.72;94419.13;4979927;28;20088;-61
2022/12/16 03:10:51;;;;;;;5.53;4.78;;;22.10;40.10;;;20.38;43.82;94422.81;4978973;28;20351;-61
2022/12/16 03:13:18;;;;;;;6.45;4.40;;;22.10;40.00;;;20.42;43.21;94418.50;4995498;28;20680;-61
2022/12/16 03:15:44;;;;;;;4.93;3.38;;;22.10;40.10;;;20.47;42.95;94421.09;4995334;28;20505;-61
2022/12/16 03:18:10;;;;;;;4.88;3.65;;;22.20;40.00;;;20.52;42.97;94421.00;4995341;28;20045;-61
2022/12/16 03:20:44;;;;;;;4.38;3.75;;;22.20;39.90;;;20.59;43.39;94432.09;4975092;28;20065;-63
2022/12/16 03:23:17;;;;;;;6.10;4.18;;;22.20;39.90;;;20.63;42.20;94425.09;4976165;28;20451;-63
2022/12/16 03:25:44;;;;;;;5.32;3.67;;;22.30;39.80;;;20.65;42.37;94430.16;4975731;28;20034;-61
2022/12/16 03:28:40;;;;;;;4.18;3.35;;;22.30;39.80;;;20.71;43.08;94429.78;4976060;28;20042;-61
2022/12/16 03:31:43;;;;;;;5.40;3.30;;;22.30;39.80;;;20.73;42.92;94435.63;5009364;28;20042;-62
2022/12/16 03:34:35;;;;;;;4.78;3.45;;;22.30;39.80;;;20.69;42.92;94426.59;4981210;28;20037;-61
2022/12/16 03:37:05;;;;;;;5.10;3.63;;;22.40;39.70;;;20.70;43.35;94422.84;5011605;28;20039;-61
2022/12/16 03:39:37;;;;;;;4.22;3.35;;;22.30;39.80;;;20.72;42.89;94423.34;5011357;28;20033;-62
2022/12/16 03:42:03;;;;;;;4.15;3.45;;;22.30;39.70;;;20.73;42.76;94422.25;5011733;28;20041;-61
2022/12/16 03:44:29;;;;;;;5.03;3.65;;;22.30;39.70;;;20.74;43.16;94423.84;5011304;28;20031;-61
2022/12/16 03:46:54;;;;;;;4.53;3.72;;;22.30;39.70;;;20.75;42.65;94422.75;5011037;28;20083;-62
2022/12/16 03:49:22;;;;;;;4.82;3.28;;;22.30;39.60;;;20.75;42.53;94429.97;4995077;28;20664;-62
2022/12/16 03:51:47;;;;;;;5.10;4.20;;;22.40;39.70;;;20.74;43.24;94429.19;5011439;28;20416;-61
2022/12/16 03:54:13;;;;;;;7.10;4.88;;;22.40;39.60;;;20.71;42.43;94424.44;5011263;28;20025;-61
2022/12/16 03:56:39;;;;;;;5.38;4.40;;;22.40;39.40;;;20.69;42.08;94429.28;5027075;28;20037;-62
2022/12/16 03:59:05;;;;;;;4.75;4.05;;;22.40;39.70;;;20.71;42.92;94437.78;5011309;28;20119;-61
2022/12/16 04:01:30;;;;;;;6.20;3.97;;;22.30;39.70;;;20.71;42.66;94443.13;5027417;28;20128;-61
2022/12/16 04:03:56;;;;;;;6.07;4.00;;;22.40;39.70;;;20.70;42.77;94441.53;5002143;28;20083;-61
2022/12/16 04:06:22;;;;;;;4.78;3.63;;;22.40;39.60;;;20.70;42.51;94433.53;5012020;28;20069;-61
2022/12/16 04:08:47;;;;;;;5.95;4.07;;;22.40;39.70;;;20.69;43.32;94429.28;4991196;28;20045;-61
2022/12/16 04:25:15;;;;;;;5.30;4.15;;;22.30;39.80;;;20.63;42.63;94459.03;4993601;28;20045;-61
2022/12/16 04:27:45;;;;;;;4.80;3.67;;;22.40;39.70;;;20.62;43.04;94468.94;4975176;28;20113;-60
2022/12/16 04:30:19;;;;;;;7.07;4.55;;;22.30;39.80;;;20.62;42.06;94462.81;4992041;28;20048;-60
